createdAt,value
2023-04-18T00:02:19.022Z,65.88
2023-04-18T00:04:45.987Z,65.92
2023-04-18T00:07:14.969Z,66.07
2023-04-18T00:09:42.029Z,66.10
2023-04-18T00:12:08.729Z,66.14
2023-04-18T00:14:35.790Z,66.28
2023-04-18T00:17:02.354Z,66.28
2023-04-18T00:19:28.921Z,66.21
2023-04-18T00:21:55.462Z,66.23
2023-04-18T00:24:21.966Z,66.31
2023-04-18T00:26:48.471Z,66.27
2023-04-18T00:29:14.940Z,66.50
2023-04-18T00:31:41.407Z,66.42
2023-04-18T00:34:07.879Z,66.42
2023-04-18T00:36:34.375Z,66.27
2023-04-18T00:39:00.849Z,66.32
2023-04-18T00:41:27.484Z,66.27
2023-04-18T00:43:54.427Z,66.37
2023-04-18T00:46:20.908Z,66.33
2023-04-18T00:48:48.417Z,66.30
2023-04-18T00:51:15.486Z,66.47
2023-04-18T00:53:44.259Z,66.60
2023-04-18T00:56:11.493Z,66.74
2023-04-18T00:58:38.151Z,66.60
2023-04-18T01:01:04.735Z,66.75
2023-04-18T01:03:31.338Z,66.99
2023-04-18T01:05:58.015Z,66.96
2023-04-18T01:08:24.664Z,67.27
2023-04-18T01:10:51.128Z,67.47
2023-04-18T01:13:19.966Z,67.62
2023-04-18T01:15:48.486Z,67.84
2023-04-18T01:18:16.111Z,68.02
2023-04-18T01:20:47.811Z,68.25
2023-04-18T01:23:15.206Z,68.45
2023-04-18T01:25:42.205Z,68.29
2023-04-18T01:28:10.457Z,68.53
2023-04-18T01:30:36.988Z,68.45
2023-04-18T01:33:04.750Z,68.16
2023-04-18T01:35:32.530Z,68.02
2023-04-18T01:38:00.008Z,68.09
2023-04-18T01:40:26.751Z,67.90
2023-04-18T01:42:53.295Z,67.95
2023-04-18T01:45:20.379Z,67.67
2023-04-18T01:47:47.201Z,67.74
2023-04-18T01:50:14.146Z,67.50
2023-04-18T01:52:40.667Z,67.42
2023-04-18T01:55:07.577Z,67.47
2023-04-18T01:57:37.510Z,67.09
2023-04-18T02:00:06.795Z,67.27
2023-04-18T02:02:33.458Z,67.63
2023-04-18T02:05:00.044Z,67.76
2023-04-18T02:07:26.785Z,67.82
2023-04-18T02:09:53.293Z,67.68
2023-04-18T02:12:19.812Z,67.41
2023-04-18T02:14:50.512Z,67.38
2023-04-18T02:17:17.058Z,67.33
2023-04-18T02:19:43.536Z,67.20
2023-04-18T02:22:10.030Z,67.11
2023-04-18T02:24:36.480Z,66.94
2023-04-18T02:27:03.041Z,66.88
2023-04-18T02:29:29.536Z,66.56
2023-04-18T02:31:56.089Z,66.94
2023-04-18T02:34:22.638Z,67.24
2023-04-18T02:36:49.437Z,67.84
2023-04-18T02:39:15.923Z,68.15
2023-04-18T02:41:42.415Z,68.47
2023-04-18T02:44:09.101Z,68.93
2023-04-18T02:46:35.618Z,69.32
2023-04-18T02:49:02.184Z,69.37
2023-04-18T02:51:28.633Z,69.52
2023-04-18T02:53:55.096Z,69.78
2023-04-18T02:56:22.232Z,69.91
2023-04-18T02:58:48.927Z,69.74
2023-04-18T03:01:17.409Z,70.10
2023-04-18T03:03:44.297Z,70.55
2023-04-18T03:06:10.775Z,70.35
2023-04-18T03:08:37.291Z,70.29
2023-04-18T03:11:03.854Z,70.20
2023-04-18T03:13:30.440Z,70.31
2023-04-18T03:15:56.969Z,70.28
2023-04-18T03:18:23.647Z,70.25
2023-04-18T03:20:50.106Z,70.25
2023-04-18T03:23:16.592Z,70.29
2023-04-18T03:25:43.089Z,70.49
2023-04-18T03:28:09.593Z,70.40
2023-04-18T03:30:36.092Z,70.28
2023-04-18T03:33:02.826Z,70.39
2023-04-18T03:35:29.513Z,70.50
2023-04-18T03:37:56.042Z,70.45
2023-04-18T03:40:22.532Z,70.20
2023-04-18T03:42:48.996Z,70.54
2023-04-18T03:45:15.561Z,70.38
2023-04-18T03:47:42.133Z,70.55
2023-04-18T03:50:09.084Z,70.46
2023-04-18T03:52:35.566Z,70.63
2023-04-18T03:55:02.054Z,70.85
2023-04-18T03:57:28.531Z,70.47
2023-04-18T03:59:54.986Z,70.43
2023-04-18T04:02:21.622Z,70.40
2023-04-18T04:04:48.314Z,70.53
2023-04-18T04:07:14.869Z,70.45
2023-04-18T04:09:41.399Z,70.54
2023-04-18T04:12:07.918Z,70.48
2023-04-18T04:14:34.416Z,70.67
2023-04-18T04:17:00.978Z,70.44
2023-04-18T04:19:27.471Z,70.49
2023-04-18T04:21:53.970Z,70.49
2023-04-18T04:24:20.513Z,70.41
2023-04-18T04:26:47.017Z,70.49
2023-04-18T04:29:13.499Z,70.70
2023-04-18T04:31:40.003Z,70.73
2023-04-18T04:34:06.470Z,70.78
2023-04-18T04:36:32.973Z,70.82
2023-04-18T04:38:59.435Z,70.95
2023-04-18T04:41:25.979Z,71.05
2023-04-18T04:43:52.455Z,71.13
2023-04-18T04:46:18.932Z,71.35
2023-04-18T04:48:45.792Z,71.49
2023-04-18T04:51:12.276Z,71.59
2023-04-18T04:53:38.793Z,71.62
2023-04-18T04:56:05.491Z,71.63
2023-04-18T04:58:31.989Z,71.74
2023-04-18T05:00:58.486Z,71.53
2023-04-18T05:03:25.124Z,71.57
2023-04-18T05:05:51.764Z,71.62
2023-04-18T05:08:18.217Z,71.62
2023-04-18T05:10:44.678Z,71.60
2023-04-18T05:13:11.533Z,71.20
2023-04-18T05:15:38.054Z,71.41
2023-04-18T05:18:04.688Z,71.55
2023-04-18T05:20:31.252Z,71.53
2023-04-18T05:22:57.713Z,71.77
2023-04-18T05:25:24.503Z,71.50
2023-04-18T05:27:50.997Z,71.80
2023-04-18T05:30:17.508Z,71.67
2023-04-18T05:32:44.044Z,71.40
2023-04-18T05:35:10.561Z,71.36
2023-04-18T05:37:37.074Z,71.47
2023-04-18T05:40:05.246Z,71.43
2023-04-18T05:42:31.735Z,71.30
2023-04-18T05:44:58.198Z,71.37
2023-04-18T05:47:24.766Z,71.08
2023-04-18T05:49:51.237Z,70.93
2023-04-18T05:52:17.780Z,70.46
2023-04-18T05:54:44.237Z,70.56
2023-04-18T05:57:10.730Z,70.16
2023-04-18T05:59:37.391Z,69.70
2023-04-18T06:02:03.900Z,69.50
2023-04-18T06:04:30.560Z,69.19
2023-04-18T06:06:57.345Z,68.75
2023-04-18T06:09:23.888Z,68.34
2023-04-18T06:11:50.334Z,68.43
2023-04-18T06:14:16.821Z,68.45
2023-04-18T06:16:43.455Z,68.22
2023-04-18T06:19:10.064Z,68.24
2023-04-18T06:21:36.529Z,68.05
2023-04-18T06:24:03.038Z,68.04
2023-04-18T06:26:29.610Z,67.92
2023-04-18T06:28:56.092Z,67.93
2023-04-18T06:31:22.624Z,67.86
2023-04-18T06:33:49.176Z,67.43
2023-04-18T06:36:15.639Z,67.28
2023-04-18T06:38:42.149Z,67.61
2023-04-18T06:41:08.634Z,67.14
2023-04-18T06:43:35.094Z,66.86
2023-04-18T06:46:03.122Z,66.37
2023-04-18T06:48:29.598Z,66.31
2023-04-18T06:50:56.107Z,65.94
2023-04-18T06:53:22.789Z,65.57
2023-04-18T06:55:49.488Z,64.55
2023-04-18T06:58:16.944Z,64.05
2023-04-18T07:00:43.599Z,63.28
2023-04-18T07:03:11.444Z,63.09
2023-04-18T07:05:40.728Z,62.21
2023-04-18T07:08:07.861Z,61.88
2023-04-18T07:10:34.350Z,61.27
2023-04-18T07:13:00.789Z,60.72
2023-04-18T07:15:27.319Z,60.07
2023-04-18T07:17:53.842Z,59.89
2023-04-18T07:20:20.402Z,59.32
2023-04-18T07:22:46.911Z,58.77
2023-04-18T07:25:13.454Z,58.23
2023-04-18T07:27:39.961Z,57.69
2023-04-18T07:30:07.153Z,57.42
2023-04-18T07:32:33.674Z,57.11
2023-04-18T07:35:00.214Z,57.22
2023-04-18T07:37:26.810Z,57.24
2023-04-18T07:39:53.292Z,56.96
2023-04-18T07:42:19.834Z,57.18
2023-04-18T07:44:46.283Z,57.64
2023-04-18T07:47:12.800Z,57.22
2023-04-18T07:49:39.298Z,57.13
2023-04-18T07:52:05.859Z,56.06
2023-04-18T07:54:32.396Z,55.81
2023-04-18T07:56:59.576Z,55.25
2023-04-18T07:59:26.048Z,54.59
2023-04-18T08:01:52.653Z,54.86
2023-04-18T08:04:19.340Z,54.35
2023-04-18T08:06:45.974Z,53.21
2023-04-18T08:09:12.584Z,53.03
2023-04-18T08:11:39.276Z,52.59
2023-04-18T08:14:05.778Z,51.68
2023-04-18T08:16:32.336Z,50.68
2023-04-18T08:18:58.846Z,50.87
2023-04-18T08:21:25.388Z,50.94
2023-04-18T08:23:51.854Z,50.87
2023-04-18T08:26:18.326Z,51.08
2023-04-18T08:28:46.350Z,50.27
2023-04-18T08:31:14.178Z,50.07
2023-04-18T08:33:41.608Z,49.32
2023-04-18T08:36:08.507Z,49.44
2023-04-18T08:38:35.207Z,49.35
2023-04-18T08:41:01.720Z,48.66
2023-04-18T08:43:28.185Z,47.11
2023-04-18T08:45:59.105Z,46.50
2023-04-18T08:48:25.669Z,46.03
2023-04-18T08:50:56.925Z,46.23
2023-04-18T08:53:23.482Z,45.91
2023-04-18T08:55:54.700Z,45.73
2023-04-18T08:58:21.340Z,44.68
2023-04-18T09:00:51.735Z,44.25
2023-04-18T09:03:36.016Z,44.48
2023-04-18T09:06:13.188Z,44.53
2023-04-18T09:08:43.793Z,44.15
2023-04-18T09:11:27.604Z,43.48
2023-04-18T09:13:55.280Z,44.31
2023-04-18T09:16:22.677Z,43.99
2023-04-18T09:19:09.582Z,43.35
2023-04-18T09:21:39.121Z,43.43
2023-04-18T09:24:25.861Z,43.16
2023-04-18T09:26:53.527Z,42.82
2023-04-18T09:29:20.395Z,42.62
2023-04-18T09:32:01.617Z,41.39
2023-04-18T09:34:29.241Z,40.39
2023-04-18T09:37:07.053Z,39.84
2023-04-18T09:39:33.656Z,38.97
2023-04-18T09:42:00.908Z,38.19
2023-04-18T09:44:27.520Z,38.06
2023-04-18T09:46:53.998Z,36.91
2023-04-18T09:49:20.524Z,36.79
2023-04-18T09:51:50.506Z,36.52
2023-04-18T09:54:17.911Z,36.13
2023-04-18T09:56:45.772Z,35.68
2023-04-18T09:59:14.633Z,34.98
2023-04-18T10:01:41.699Z,35.11
2023-04-18T10:04:10.045Z,35.02
2023-04-18T10:06:36.793Z,34.37
2023-04-18T10:09:03.934Z,34.49
2023-04-18T10:11:31.610Z,34.98
2023-04-18T10:14:03.310Z,34.54
2023-04-18T10:16:31.831Z,34.23
2023-04-18T10:19:26.319Z,33.93
2023-04-18T10:21:57.654Z,33.78
2023-04-18T10:24:42.864Z,32.94
2023-04-18T10:27:09.287Z,33.29
2023-04-18T10:29:54.391Z,33.77
2023-04-18T10:32:23.879Z,33.23
2023-04-18T10:34:50.487Z,33.44
2023-04-18T10:37:16.957Z,33.46
2023-04-18T10:39:55.341Z,33.23
2023-04-18T10:42:47.976Z,33.10
2023-04-18T10:45:24.698Z,33.21
2023-04-18T10:48:11.389Z,32.42
2023-04-18T10:51:17.095Z,31.98
2023-04-18T10:53:56.220Z,31.59
2023-04-18T10:56:22.755Z,31.52
2023-04-18T10:58:53.248Z,31.75
2023-04-18T11:01:28.579Z,31.74
2023-04-18T11:03:57.167Z,30.95
2023-04-18T11:06:24.186Z,29.79
2023-04-18T11:08:51.046Z,28.53
2023-04-18T11:11:17.522Z,28.33
2023-04-18T11:13:55.088Z,27.92
2023-04-18T11:16:29.540Z,28.34
2023-04-18T11:18:56.296Z,28.27
2023-04-18T11:21:29.161Z,28.54
2023-04-18T11:23:57.492Z,29.11
2023-04-18T11:26:27.870Z,29.46
2023-04-18T11:28:58.249Z,29.08
2023-04-18T11:31:25.220Z,28.70
2023-04-18T11:33:52.390Z,28.22
2023-04-18T11:36:18.913Z,28.42
2023-04-18T11:38:45.484Z,28.58
2023-04-18T11:41:13.074Z,28.09
2023-04-18T11:43:43.103Z,27.95
2023-04-18T11:46:09.671Z,27.55
2023-04-18T11:48:41.460Z,27.87
2023-04-18T11:51:28.661Z,27.41
2023-04-18T11:53:55.156Z,26.44
2023-04-18T11:56:21.639Z,26.50
2023-04-18T11:58:48.166Z,26.37
2023-04-18T12:01:18.291Z,26.06
2023-04-18T12:03:59.275Z,25.63
2023-04-18T12:06:25.901Z,25.41
2023-04-18T12:08:59.064Z,26.00
2023-04-18T12:11:25.577Z,25.68
2023-04-18T12:13:56.466Z,25.61
2023-04-18T12:16:26.665Z,26.21
2023-04-18T12:18:59.278Z,26.28
2023-04-18T12:21:25.793Z,26.05
2023-04-18T12:23:52.316Z,26.37
2023-04-18T12:26:18.748Z,27.61
2023-04-18T12:28:46.080Z,28.19
2023-04-18T12:31:12.588Z,27.78
2023-04-18T12:33:39.052Z,26.71
2023-04-18T12:36:06.100Z,27.26
2023-04-18T12:38:32.576Z,27.66
2023-04-18T12:40:59.128Z,27.19
2023-04-18T12:43:25.623Z,27.82
2023-04-18T12:45:52.231Z,26.94
2023-04-18T12:48:18.704Z,27.53
2023-04-18T12:50:45.238Z,28.34
2023-04-18T12:53:11.694Z,28.90
2023-04-18T12:55:38.273Z,29.05
2023-04-18T12:58:04.700Z,29.72
2023-04-18T13:00:32.034Z,29.57
2023-04-18T13:02:58.917Z,28.72
2023-04-18T13:05:31.725Z,29.15
2023-04-18T13:08:15.294Z,29.57
2023-04-18T13:10:44.473Z,29.20
2023-04-18T13:13:11.077Z,28.86
2023-04-18T13:15:38.007Z,28.92
2023-04-18T13:18:04.941Z,28.48
2023-04-18T13:20:33.338Z,28.27
2023-04-18T13:22:59.902Z,28.14
2023-04-18T13:25:26.373Z,28.39
2023-04-18T13:27:52.846Z,28.03
2023-04-18T13:30:19.626Z,28.28
2023-04-18T13:32:46.183Z,28.96
2023-04-18T13:35:12.724Z,28.83
2023-04-18T13:37:39.575Z,28.37
2023-04-18T13:40:06.594Z,27.75
2023-04-18T13:42:37.351Z,26.55
2023-04-18T13:45:04.287Z,25.55
2023-04-18T13:47:30.847Z,25.03
2023-04-18T13:49:57.365Z,24.95
2023-04-18T13:52:23.920Z,24.33
2023-04-18T13:54:50.447Z,23.44
2023-04-18T13:57:16.949Z,22.63
2023-04-18T13:59:43.440Z,21.76
2023-04-18T14:02:10.154Z,21.16
2023-04-18T14:04:37.499Z,20.90
2023-04-18T14:07:04.259Z,21.43
2023-04-18T14:09:30.743Z,22.26
2023-04-18T14:11:57.236Z,22.62
2023-04-18T14:14:23.890Z,23.31
2023-04-18T14:16:50.392Z,23.82
2023-04-18T14:19:16.890Z,24.13
2023-04-18T14:21:43.618Z,24.38
2023-04-18T14:24:10.135Z,23.43
2023-04-18T14:26:36.910Z,23.69
2023-04-18T14:29:03.441Z,24.10
2023-04-18T14:31:30.107Z,23.92
2023-04-18T14:33:56.694Z,24.00
2023-04-18T14:36:23.201Z,24.42
2023-04-18T14:38:49.717Z,24.44
2023-04-18T14:41:16.536Z,24.00
2023-04-18T14:43:43.094Z,24.30
2023-04-18T14:46:13.679Z,25.14
2023-04-18T14:48:40.183Z,25.68
2023-04-18T14:51:06.659Z,25.29
2023-04-18T14:53:33.810Z,25.36
2023-04-18T14:56:00.275Z,25.94
2023-04-18T14:58:26.772Z,26.18
2023-04-18T15:00:53.266Z,26.92
2023-04-18T15:03:19.892Z,26.66
2023-04-18T15:05:46.481Z,26.64
2023-04-18T15:08:13.388Z,26.60
2023-04-18T15:10:40.517Z,26.65
2023-04-18T15:13:06.974Z,27.00
2023-04-18T15:15:33.470Z,27.18
2023-04-18T15:17:59.986Z,27.65
2023-04-18T15:20:26.780Z,27.63
2023-04-18T15:22:53.281Z,27.39
2023-04-18T15:25:19.778Z,27.82
2023-04-18T15:27:46.268Z,27.88
2023-04-18T15:30:13.715Z,27.98
2023-04-18T15:32:40.254Z,28.31
2023-04-18T15:35:07.150Z,28.43
2023-04-18T15:37:33.635Z,28.44
2023-04-18T15:40:00.473Z,28.37
2023-04-18T15:42:26.974Z,28.45
2023-04-18T15:44:53.789Z,28.98
2023-04-18T15:47:20.297Z,29.18
2023-04-18T15:49:47.233Z,28.93
2023-04-18T15:52:13.716Z,28.97
2023-04-18T15:54:40.857Z,29.04
2023-04-18T15:57:07.419Z,29.38
2023-04-18T15:59:33.879Z,29.20
2023-04-18T16:02:00.613Z,29.03
2023-04-18T16:04:27.329Z,29.00
2023-04-18T16:06:54.482Z,29.79
2023-04-18T16:09:20.932Z,29.64
2023-04-18T16:11:47.414Z,29.65
2023-04-18T16:14:14.419Z,29.84
2023-04-18T16:16:41.297Z,29.90
2023-04-18T16:19:07.764Z,30.01
2023-04-18T16:21:34.244Z,30.18
2023-04-18T16:24:00.880Z,31.05
2023-04-18T16:26:27.392Z,31.25
2023-04-18T16:28:53.960Z,31.75
2023-04-18T16:31:20.531Z,31.66
2023-04-18T16:33:47.160Z,31.95
2023-04-18T16:36:13.734Z,31.92
2023-04-18T16:38:40.217Z,32.22
2023-04-18T16:41:06.677Z,32.58
2023-04-18T16:43:33.191Z,32.67
2023-04-18T16:45:59.923Z,32.57
2023-04-18T16:48:26.623Z,32.65
2023-04-18T16:50:53.114Z,32.25
2023-04-18T16:53:19.582Z,32.61
2023-04-18T16:55:46.060Z,32.89
2023-04-18T16:58:12.635Z,33.16
2023-04-18T17:00:39.201Z,33.25
2023-04-18T17:03:05.731Z,32.95
2023-04-18T17:05:32.797Z,33.01
2023-04-18T17:08:00.050Z,32.79
2023-04-18T17:10:28.595Z,33.20
2023-04-18T17:12:55.167Z,33.49
2023-04-18T17:15:21.931Z,34.13
2023-04-18T17:17:48.447Z,33.74
2023-04-18T17:20:15.308Z,34.48
2023-04-18T17:22:41.827Z,34.26
2023-04-18T17:25:08.664Z,34.78
2023-04-18T17:27:35.156Z,35.41
2023-04-18T17:30:01.821Z,35.75
2023-04-18T17:32:28.323Z,36.00
2023-04-18T17:34:54.814Z,36.10
2023-04-18T17:37:21.300Z,36.52
2023-04-18T17:39:48.618Z,37.06
2023-04-18T17:42:15.257Z,37.27
2023-04-18T17:44:41.688Z,37.26
2023-04-18T17:47:08.163Z,37.77
2023-04-18T17:49:34.658Z,38.32
2023-04-18T17:52:01.500Z,38.76
2023-04-18T17:54:27.964Z,38.81
2023-04-18T17:56:54.522Z,39.14
2023-04-18T17:59:21.012Z,39.73
2023-04-18T18:01:48.949Z,40.13
2023-04-18T18:04:15.804Z,40.04
2023-04-18T18:06:42.380Z,40.20
2023-04-18T18:09:08.931Z,40.64
2023-04-18T18:11:35.629Z,40.87
2023-04-18T18:14:02.204Z,41.11
2023-04-18T18:16:31.094Z,41.61
2023-04-18T18:18:58.577Z,42.04
2023-04-18T18:21:25.140Z,42.14
2023-04-18T18:23:51.613Z,42.53
2023-04-18T18:26:18.211Z,42.96
2023-04-18T18:28:44.716Z,43.29
2023-04-18T18:31:11.257Z,43.78
2023-04-18T18:33:37.753Z,44.09
2023-04-18T18:36:04.545Z,44.29
2023-04-18T18:38:31.062Z,44.55
2023-04-18T18:40:57.577Z,45.01
2023-04-18T18:43:24.339Z,45.32
2023-04-18T18:45:50.829Z,45.47
2023-04-18T18:48:17.454Z,45.44
2023-04-18T18:50:43.909Z,45.62
2023-04-18T18:53:10.370Z,45.58
2023-04-18T18:55:36.832Z,45.21
2023-04-18T18:58:03.347Z,45.11
2023-04-18T19:00:29.826Z,44.99
2023-04-18T19:02:56.384Z,43.91
2023-04-18T19:05:23.148Z,42.52
2023-04-18T19:07:49.724Z,42.61
2023-04-18T19:10:16.371Z,42.56
2023-04-18T19:12:43.101Z,42.33
2023-04-18T19:15:11.214Z,42.83
2023-04-18T19:17:37.726Z,42.40
2023-04-18T19:20:04.643Z,42.71
2023-04-18T19:22:31.168Z,42.86
2023-04-18T19:24:57.650Z,43.18
2023-04-18T19:27:24.156Z,42.96
2023-04-18T19:29:50.631Z,42.74
2023-04-18T19:32:17.095Z,42.68
2023-04-18T19:34:43.618Z,42.91
2023-04-18T19:37:10.122Z,42.99
2023-04-18T19:39:36.584Z,42.91
2023-04-18T19:42:03.487Z,42.65
2023-04-18T19:44:29.970Z,42.30
2023-04-18T19:46:56.629Z,42.19
2023-04-18T19:49:23.114Z,41.89
2023-04-18T19:51:49.578Z,42.06
2023-04-18T19:54:16.307Z,41.88
2023-04-18T19:56:42.790Z,42.47
2023-04-18T19:59:09.255Z,42.69
2023-04-18T20:01:35.772Z,42.12
2023-04-18T20:04:02.525Z,42.05
2023-04-18T20:06:29.430Z,42.06
2023-04-18T20:08:55.919Z,42.18
2023-04-18T20:11:22.718Z,42.23
2023-04-18T20:13:49.291Z,42.37
2023-04-18T20:16:15.974Z,42.01
2023-04-18T20:18:42.450Z,41.84
2023-04-18T20:21:09.992Z,41.58
2023-04-18T20:23:37.307Z,41.67
2023-04-18T20:26:04.227Z,41.90
2023-04-18T20:28:31.622Z,41.81
2023-04-18T20:30:58.254Z,41.61
2023-04-18T20:33:24.769Z,41.48
2023-04-18T20:35:51.247Z,41.22
2023-04-18T20:38:17.689Z,41.47
2023-04-18T20:40:44.172Z,42.08
2023-04-18T20:43:11.134Z,42.12
2023-04-18T20:45:37.615Z,41.28
2023-04-18T20:48:04.429Z,41.17
2023-04-18T20:50:30.897Z,41.05
2023-04-18T20:52:58.641Z,41.10
2023-04-18T20:55:25.135Z,40.54
2023-04-18T20:57:51.610Z,40.64
2023-04-18T21:00:18.463Z,41.01
2023-04-18T21:02:45.262Z,41.21
2023-04-18T21:05:11.933Z,41.45
2023-04-18T21:07:38.451Z,41.33
2023-04-18T21:10:05.285Z,41.22
2023-04-18T21:12:31.757Z,40.71
2023-04-18T21:14:58.226Z,41.45
2023-04-18T21:17:24.790Z,41.16
2023-04-18T21:19:51.894Z,40.83
2023-04-18T21:22:18.469Z,40.84
2023-04-18T21:24:45.008Z,41.10
2023-04-18T21:27:11.465Z,40.98
2023-04-18T21:29:37.944Z,40.88
2023-04-18T21:32:04.649Z,40.88
2023-04-18T21:34:31.137Z,41.32
2023-04-18T21:36:57.639Z,41.51
2023-04-18T21:39:24.200Z,42.38
2023-04-18T21:41:50.662Z,42.25
2023-04-18T21:44:17.274Z,42.07
2023-04-18T21:46:43.807Z,41.50
2023-04-18T21:49:10.348Z,41.61
2023-04-18T21:51:36.869Z,41.88
2023-04-18T21:54:04.070Z,42.14
2023-04-18T21:56:30.542Z,42.08
2023-04-18T21:58:57.024Z,42.47
2023-04-18T22:01:23.575Z,42.24
2023-04-18T22:03:50.426Z,42.32
2023-04-18T22:06:17.013Z,42.74
2023-04-18T22:08:43.459Z,43.07
2023-04-18T22:11:10.004Z,43.18
2023-04-18T22:13:36.471Z,43.64
2023-04-18T22:16:03.688Z,43.48
2023-04-18T22:18:32.780Z,43.62
2023-04-18T22:21:00.176Z,43.27
2023-04-18T22:23:27.164Z,42.88
2023-04-18T22:25:53.692Z,43.00
2023-04-18T22:28:20.396Z,43.12
2023-04-18T22:30:46.877Z,43.36
2023-04-18T22:33:13.399Z,43.79
2023-04-18T22:35:39.855Z,43.16
2023-04-18T22:38:06.389Z,43.99
2023-04-18T22:40:32.898Z,43.50
2023-04-18T22:42:59.352Z,43.36
2023-04-18T22:45:25.856Z,43.39
2023-04-18T22:47:52.360Z,43.51
2023-04-18T22:50:18.996Z,43.63
2023-04-18T22:52:45.461Z,43.60
2023-04-18T22:55:12.021Z,43.72
2023-04-18T22:57:38.579Z,43.75
2023-04-18T23:00:05.628Z,44.14
2023-04-18T23:02:33.020Z,44.01
2023-04-18T23:04:59.658Z,44.14
2023-04-18T23:07:26.236Z,44.37
2023-04-18T23:09:52.697Z,44.51
2023-04-18T23:12:19.461Z,44.61
2023-04-18T23:14:45.925Z,44.52
2023-04-18T23:17:12.386Z,44.46
2023-04-18T23:19:38.957Z,44.62
2023-04-18T23:22:05.563Z,44.64
2023-04-18T23:24:32.088Z,44.59
2023-04-18T23:26:58.625Z,44.75
2023-04-18T23:29:25.122Z,44.69
2023-04-18T23:31:51.712Z,44.74
2023-04-18T23:34:18.303Z,44.77
2023-04-18T23:36:44.783Z,44.57
2023-04-18T23:39:11.242Z,44.78
2023-04-18T23:41:37.744Z,44.71
2023-04-18T23:44:04.374Z,44.88
2023-04-18T23:46:30.888Z,44.68
2023-04-18T23:48:57.392Z,44.71
2023-04-18T23:51:23.855Z,44.80
2023-04-18T23:53:50.415Z,44.61
2023-04-18T23:56:16.906Z,44.66
2023-04-18T23:58:43.384Z,44.64
